ADDS METAR Data INFO
IDs: Format: Raw Decoded Include TAF

Data at: 1514 UTC 11 Dec 2017

KMCW 111453Z AUTO 30009KT 4SM -SN FEW042 OVC070 01/M04 A2973 RMK AO2 SNB36 SLP074 P0000 60000 T00061044 55016
KMCW 111353Z AUTO 23008KT 10SM BKN065 OVC090 01/M04 A2972 RMK AO2 SLP070 T00061044
KMCW 111253Z AUTO 23006KT 10SM FEW085 M01/M05 A2975 RMK AO2 SLP082 T10061050
KMCW 111153Z AUTO 19005KT 10SM SCT120 M01/M05 A2977 RMK AO2 SLP092 T10111050 10000 21022 56043
KMCW 111053Z AUTO 19004KT 10SM FEW120 M01/M04 A2981 RMK AO2 SLP102 T10111044
KMCW 110953Z AUTO 20007KT 10SM CLR M02/M06 A2984 RMK AO2 SLP114 T10171056
KMCW 110853Z AUTO 21009KT 10SM BKN120 00/M05 A2991 RMK AO2 SLP135 T00001050 55029
KMCW 110753Z AUTO 17011KT 10SM FEW055 BKN080 OVC100 M02/M06 A2990 RMK AO2 PRESFR SLP132 T10171056
KMCW 110653Z AUTO 16005KT 10SM BKN110 M02/M06 A2996 RMK AO2 SLP152 T10221061
KMCW 110553Z AUTO 17005KT 10SM OVC100 M02/M06 A3000 RMK AO2 SLP165 T10171056 11017 21028 400221067 56017
KMCW 110453Z AUTO 17005KT 10SM BKN120 M02/M06 A3000 RMK AO2 SLP169 T10171056
KMCW 110353Z AUTO 17005KT 10SM BKN085 M02/M06 A3001 RMK AO2 SLP172 T10171056
KMCW 110253Z AUTO 18003KT 10SM OVC090 M02/M06 A3005 RMK AO2 SLP185 T10171056 58008
KMCW 110153Z AUTO 00000KT 10SM OVC100 M02/M06 A3006 RMK AO2 SLP190 T10171056
KMCW 110053Z AUTO 26003KT 10SM OVC100 M02/M06 A3007 RMK AO2 SLP192 T10221061
KMCW 102353Z AUTO 28003KT 10SM BKN110 M03/M07 A3007 RMK AO2 SLP194 T10331072 10022 21044 53014
KMCW 102253Z AUTO 33005KT 10SM FEW110 M03/M07 A3005 RMK AO2 SLP190 T10281072
KMCW 102153Z AUTO 31006KT 10SM CLR 01/M06 A3003 RMK AO2 SLP179 T00061056
KMCW 102053Z AUTO 31010KT 10SM CLR 01/M06 A3003 RMK AO2 SLP178 T00111056 53010
KMCW 101953Z AUTO 34013KT 10SM CLR 02/M06 A3002 RMK AO2 SLP173 T00221056
KMCW 101853Z AUTO 33013KT 10SM CLR 02/M06 A3000 RMK AO2 SLP171 T00221056
KMCW 101753Z AUTO 34014KT 10SM CLR 01/M05 A3000 RMK AO2 SLP168 T00111050 10011 21022 50013
KMCW 101653Z AUTO 34017KT 10SM CLR 01/M06 A3000 RMK AO2 SLP170 T00061056
KMCW 101553Z AUTO 33018KT 10SM FEW018 00/M06 A2998 RMK AO2 SLP163 T00001056
KMCW 101453Z AUTO 32013KT 10SM CLR M02/M05 A2996 RMK AO2 SLP157 T10171050 53028
KMCW 101353Z AUTO 32016KT 10SM CLR M02/M06 A2992 RMK AO2 SLP143 T10171056
KMCW 101253Z AUTO 32016KT 10SM CLR M02/M06 A2991 RMK AO2 SLP140 T10171056
KMCW 101153Z AUTO 31015KT 10SM CLR M02/M06 A2987 RMK AO2 SLP128 T10221056 11017 21067 53005
KMCW 101053Z AUTO 28011KT 10SM CLR M05/M08 A2986 RMK AO2 SLP124 T10501078
KMCW 100953Z AUTO 27013KT 10SM CLR M04/M08 A2985 RMK AO2 SLP122 T10441078
KMCW 100853Z AUTO 25013KT 10SM CLR M04/M08 A2986 RMK AO2 SLP122 T10391078 56016
KMCW 100753Z AUTO 23013KT 10SM CLR M04/M08 A2986 RMK AO2 SLP125 T10391078
KMCW 100653Z AUTO 20006KT 10SM CLR M07/M09 A2989 RMK AO2 SLP135 T10671094
KMCW 100553Z AUTO 20013KT 10SM SCT110 M04/M09 A2990 RMK AO2 SLP139 T10441089 11044 21083 410171083 58044
KMCW 100453Z AUTO 20011KT 10SM CLR M07/M10 A2996 RMK AO2 PRESFR SLP157 T10671100
KMCW 100353Z AUTO 20006KT 10SM SCT120 M07/M11 A3002 RMK AO2 SLP180 T10721106